Tonasket, WA (98855)

12:07 AM PST on November 24, 2014 (GMT -0800)
Mt. Hull | Change Station
CLOSE
Current Station
Personal Weather Station
Location: Tonasket, WA
Elevation: 2995 ft
Nearby Weather Stations

Elev 2995 ft 48.83 °N, 119.33 °W | Updated 7 minutes ago

Clear
Clear
23.7 °F
Feels Like 24 °F
N
0.0
Wind Variable Wind from NE
Gusts 0.0 mph

Today
High -- | Low -- °F
--% Chance of Precip.
Yesterday
High -- | Low -- °F
Precip. -- in
7:19 AM 4:08 PM
Waxing Crescent, 4% visible
Pressure 30.27 in
Visibility 10.0 miles
Clouds Clear
Windchill 24 °F
Dew Point 21 °F
Humidity 88%
Rainfall 0.00 in
Snow Depth Not available.
UV 0.0 out of 12
Pollen .10 out of 12
Air Quality Not available.
Flu Activity Not available.
METAR KOMK 240753Z AUTO 28005KT 10SM CLR M03/M06 A3023 RMK AO2 SLP251 I1000 T10331056 400561072

More Conditions Fewer Conditions

Pressure 30.27 in
Visibility 10.0 miles
Clouds Clear
Windchill 24 °F
Dew Point 21 °F
Humidity 88%
Rainfall 0.00 in
Snow Depth Not available.
UV 0.0 out of 12
Pollen .10 out of 12
Air Quality Not available.
Flu Activity Not available.
METAR KOMK 240753Z AUTO 28005KT 10SM CLR M03/M06 A3023 RMK AO2 SLP251 I1000 T10331056 400561072

More Conditions Fewer Conditions

10-Day Weather Forecast

Almanac

Astronomy

Nov. 24, 2014 Rise Set
Actual Time
Civil Twilight
Nautical Twilight
Astronomical Twilight
Moon
Length of Visible Light
Length of Day
Tomorrow will be .
, % of the Moon is Illuminated

Today's Extremes

State Highs State Lows

Community

WunderPhotos

Upload Photos

1,773,295 photos uploaded!

WunderBlogs® & News

Nearby

Air Quality

  Air Quality AQ Index Pollutant
Not available.

Snow Depth

Station Depth Elevation

Earthquake Activity

City Distance Mag. Time & Date
Minimum magnitude displayed is 2.5.

Coastal Water Temperatures

Place Temperature

Nearby Weather Stations